createdAt,value
2022-10-30T00:07:17.833Z,98195.56
2022-10-30T00:17:20.296Z,98187.97
2022-10-30T00:27:22.799Z,98183.03
2022-10-30T00:37:25.421Z,98178.66
2022-10-30T00:47:38.374Z,98179.69
2022-10-30T00:57:43.113Z,98176.44
2022-10-30T01:07:45.415Z,98166.47
2022-10-30T01:18:03.534Z,98171.97
2022-10-30T01:28:27.324Z,98154.91
2022-10-30T01:38:36.484Z,98148.97
2022-10-30T01:48:59.439Z,98144.59
2022-10-30T01:59:13.003Z,98137.78
2022-10-30T02:09:16.907Z,98124.47
2022-10-30T02:19:19.454Z,98120.66
2022-10-30T02:29:22.181Z,98126.31
2022-10-30T02:39:24.503Z,98129.50
2022-10-30T02:49:26.804Z,98125.87
2022-10-30T02:59:30.384Z,98134.44
2022-10-30T03:09:32.807Z,98127.78
2022-10-30T03:19:35.965Z,98118.03
2022-10-30T03:29:38.278Z,98110.37
2022-10-30T03:39:40.522Z,98110.59
2022-10-30T03:49:42.877Z,98123.16
2022-10-30T03:59:45.338Z,98118.22
2022-10-30T04:09:47.693Z,98118.75
2022-10-30T04:19:49.849Z,98130.78
2022-10-30T04:29:53.007Z,98129.41
2022-10-30T04:39:55.203Z,98121.75
2022-10-30T04:49:57.516Z,98126.03
2022-10-30T04:59:59.742Z,98124.41
2022-10-30T05:10:01.970Z,98113.31
2022-10-30T05:20:05.350Z,98106.25
2022-10-30T05:30:08.337Z,98120.72
2022-10-30T05:40:11.222Z,98114.47
2022-10-30T05:50:13.451Z,98110.44
2022-10-30T06:00:16.490Z,98111.78
2022-10-30T06:10:18.795Z,98114.38
2022-10-30T06:20:23.880Z,98101.06
2022-10-30T06:30:27.501Z,98101.13
2022-10-30T06:40:30.368Z,98121.41
2022-10-30T06:50:32.828Z,98121.22
2022-10-30T07:00:35.390Z,98125.94
2022-10-30T07:10:37.958Z,98134.53
2022-10-30T07:20:40.460Z,98141.28
2022-10-30T07:30:42.862Z,98138.06
2022-10-30T07:40:45.344Z,98139.44
2022-10-30T07:50:47.691Z,98142.59
2022-10-30T08:00:50.389Z,98148.72
2022-10-30T08:10:53.232Z,98152.47
2022-10-30T08:20:55.754Z,98165.97
2022-10-30T08:30:59.711Z,98174.44
2022-10-30T08:41:02.851Z,98169.56
2022-10-30T08:51:07.394Z,98162.44
2022-10-30T09:01:10.470Z,98161.53
2022-10-30T09:11:13.119Z,98157.59
2022-10-30T09:21:15.850Z,98162.53
2022-10-30T09:31:18.562Z,98164.28
2022-10-30T09:41:39.163Z,98163.59
2022-10-30T09:52:12.430Z,98160.41
2022-10-30T10:02:33.617Z,98169.91
2022-10-30T10:12:44.308Z,98165.88
2022-10-30T10:22:51.418Z,98175.50
2022-10-30T10:33:01.731Z,98173.50
2022-10-30T10:43:12.732Z,98187.19
2022-10-30T10:53:40.444Z,98179.28
2022-10-30T11:04:04.645Z,98172.03
2022-10-30T11:14:19.566Z,98170.41
2022-10-30T11:24:31.285Z,98177.31
2022-10-30T11:34:38.422Z,98170.34
2022-10-30T11:44:51.970Z,98163.03
2022-10-30T11:55:02.195Z,98152.75
2022-10-30T12:05:24.968Z,98152.84
2022-10-30T12:15:28.634Z,98151.41
2022-10-30T12:25:32.796Z,98131.09
2022-10-30T12:35:45.519Z,98125.59
2022-10-30T12:45:51.642Z,98115.66
2022-10-30T12:56:05.861Z,98109.38
2022-10-30T13:06:17.895Z,98105.72
2022-10-30T13:16:31.086Z,98102.56
2022-10-30T13:26:45.116Z,98088.00
2022-10-30T13:37:01.437Z,98079.44
2022-10-30T13:47:19.023Z,98072.47
2022-10-30T13:57:40.139Z,98070.78
2022-10-30T14:08:06.039Z,98076.06
2022-10-30T14:18:14.788Z,98072.03
2022-10-30T14:28:23.386Z,98065.69
2022-10-30T14:38:27.882Z,98068.94
2022-10-30T14:49:12.025Z,98055.97
2022-10-30T14:59:14.528Z,98049.59
2022-10-30T15:09:32.373Z,98050.47
2022-10-30T15:19:36.040Z,98057.56
2022-10-30T15:29:40.196Z,98059.72
2022-10-30T15:39:42.817Z,98061.53
2022-10-30T15:49:57.556Z,98062.47
2022-10-30T16:00:06.415Z,98062.06
2022-10-30T16:10:15.439Z,98065.87
2022-10-30T16:20:18.139Z,98074.25
2022-10-30T16:30:20.777Z,98084.66
2022-10-30T16:40:29.353Z,98085.66
2022-10-30T16:50:36.712Z,98096.41
2022-10-30T17:00:42.305Z,98102.41
2022-10-30T17:11:01.164Z,98114.34
2022-10-30T17:21:16.444Z,98118.53
2022-10-30T17:31:19.139Z,98134.72
2022-10-30T17:41:22.037Z,98149.94
2022-10-30T17:51:24.590Z,98160.84
2022-10-30T18:01:27.718Z,98165.22
2022-10-30T18:11:30.398Z,98180.69
2022-10-30T18:21:33.196Z,98196.72
2022-10-30T18:31:35.964Z,98204.00
2022-10-30T18:41:42.529Z,98206.94
2022-10-30T18:51:45.120Z,98204.75
2022-10-30T19:01:47.847Z,98202.84
2022-10-30T19:11:50.452Z,98213.56
2022-10-30T19:21:53.296Z,98210.56
2022-10-30T19:31:55.893Z,98215.66
2022-10-30T19:41:58.373Z,98211.50
2022-10-30T19:52:01.053Z,98205.47
2022-10-30T20:02:03.584Z,98217.63
2022-10-30T20:12:07.398Z,98211.81
2022-10-30T20:22:13.952Z,98222.88
2022-10-30T20:32:16.748Z,98225.19
2022-10-30T20:42:22.807Z,98228.88
2022-10-30T20:52:25.358Z,98236.09
2022-10-30T21:02:28.789Z,98234.09
2022-10-30T21:12:31.171Z,98239.41
2022-10-30T21:22:33.630Z,98237.72
2022-10-30T21:32:36.068Z,98237.69
2022-10-30T21:42:38.438Z,98238.16
2022-10-30T21:52:41.305Z,98234.91
2022-10-30T22:02:43.709Z,98232.72
2022-10-30T22:12:46.266Z,98237.22
2022-10-30T22:22:49.173Z,98228.31
2022-10-30T22:32:52.009Z,98232.78
2022-10-30T22:42:54.394Z,98230.91
2022-10-30T22:52:59.614Z,98227.63
2022-10-30T23:03:03.691Z,98227.06
2022-10-30T23:13:07.413Z,98227.19
2022-10-30T23:23:10.333Z,98223.63
2022-10-30T23:33:13.741Z,98216.25
2022-10-30T23:43:16.852Z,98214.84
2022-10-30T23:53:19.726Z,98212.88
